This is the latest recevied weather packets stored in our database for station/object PY2VE-13. If no packets are shown the sender has not sent any weather packets the latest 10 day(s).
| Time | Temp. | Humidity | Pressure | Rain* | Wind** | Luminosity | Snow |
|---|---|---|---|---|---|---|---|
| 1778106837 | 30.56° C | 36% | 1020.8 hPa | - | - | - | - |
| 1778105937 | 30.56° C | 36% | 1020.7 hPa | - | - | - | - |
| 1778105037 | 31.11° C | 36% | 1020.5 hPa | - | - | - | - |
| 1778104137 | 31.11° C | 35% | 1020.5 hPa | - | - | - | - |
| 1778103237 | 31.11° C | 34% | 1020.5 hPa | - | - | - | - |
| 1778102337 | 31.11° C | 33% | 1020.4 hPa | - | - | - | - |
| 1778101437 | 31.67° C | 33% | 1020.2 hPa | - | - | - | - |
| 1778100537 | 31.67° C | 33% | 1020.2 hPa | - | - | - | - |
| 1778099637 | 32.22° C | 31% | 1019.9 hPa | - | - | - | - |
| 1778098737 | 32.78° C | 30% | 1019.8 hPa | - | - | - | - |
| 1778097837 | 32.78° C | 29% | 1019.6 hPa | - | - | - | - |
| 1778096937 | 32.78° C | 29% | 1019.6 hPa | - | - | - | - |
| 1778096037 | 33.33° C | 28% | 1019.4 hPa | - | - | - | - |
| 1778095137 | 35.56° C | 25% | 1019.1 hPa | - | - | - | - |
| 1778094237 | 47.78° C | 13% | 1016.3 hPa | - | - | - | - |
| 1778093337 | 52.78° C | 10% | 1015.3 hPa | - | - | - | - |
| 1778092437 | 36.11° C | 24% | 1018.9 hPa | - | - | - | - |
| 1778091537 | 33.33° C | 28% | 1019.5 hPa | - | - | - | - |
| 1778090637 | 32.78° C | 28% | 1019.9 hPa | - | - | - | - |
| 1778089737 | 32.22° C | 29% | 1020.1 hPa | - | - | - | - |
| 1778088837 | 32.78° C | 28% | 1020.3 hPa | - | - | - | - |
| 1778087937 | 32.22° C | 27% | 1020.6 hPa | - | - | - | - |
| 1778087036 | 32.22° C | 29% | 1020.9 hPa | - | - | - | - |
| 1778086137 | 32.78° C | 28% | 1021.1 hPa | - | - | - | - |
| 1778085236 | 32.22° C | 29% | 1021.3 hPa | - | - | - | - |
* Rain since midnight (hover to see other rain measurements)
** Current wind speed in m/s (hover to see current wind gust speed)